Time;durP1;ratioP1;P1;durP2;ratioP2;P2;SDS_P1;SDS_P2;PMS_P1;PMS_P2;Temp;Humidity;BMP_temperature;BMP_pressure;BME280_temperature;BME280_humidity;BME280_pressure;Samples;Min_cycle;Max_cycle;Signal;HPM_P1;HPM_P2
2021/01/04 00:01:33;;;;;;;36.97;20.33;;;;;;;;;;5057622;28;20029;-54
2021/01/04 00:04:01;;;;;;;41.90;19.57;;;;;;;;;;5059375;28;20107;-57
2021/01/04 00:06:29;;;;;;;39.87;19.77;;;;;;;;;;5059566;28;20086;-54
2021/01/04 00:09:02;;;;;;;38.80;19.07;;;;;;;;;;5058077;28;20527;-52
2021/01/04 00:11:28;;;;;;;37.23;18.53;;;;;;;;;;5063240;28;20387;-56
2021/01/04 00:13:57;;;;;;;49.90;19.37;;;;;;;;;;5061406;28;20016;-54
2021/01/04 00:16:32;;;;;;;37.73;19.33;;;;;;;;;;5060837;28;20021;-50
2021/01/04 00:19:06;;;;;;;43.17;20.77;;;;;;;;;;5059779;28;20025;-53
2021/01/04 00:21:35;;;;;;;41.90;20.33;;;;;;;;;;5058583;28;20039;-53
2021/01/04 00:24:00;;;;;;;43.60;18.93;;;;;;;;;;5058760;28;20977;-56
2021/01/04 00:26:37;;;;;;;42.03;19.40;;;;;;;;;;5061385;28;20107;-54
2021/01/04 00:29:02;;;;;;;38.43;18.63;;;;;;;;;;5053575;28;20150;-54
2021/01/04 00:31:31;;;;;;;37.00;19.20;;;;;;;;;;5062307;28;20103;-55
2021/01/04 00:34:02;;;;;;;39.57;19.40;;;;;;;;;;5066811;28;20039;-56
2021/01/04 00:36:33;;;;;;;41.03;17.70;;;;;;;;;;5063864;28;20024;-55
2021/01/04 00:39:16;;;;;;;41.93;18.77;;;;;;;;;;5062856;28;20078;-55
2021/01/04 00:41:47;;;;;;;40.60;18.53;;;;;;;;;;5066291;28;20071;-55
2021/01/04 00:44:16;;;;;;;40.93;18.07;;;;;;;;;;5060229;28;20036;-55
2021/01/04 00:46:46;;;;;;;40.53;18.70;;;;;;;;;;5062281;28;20394;-54
2021/01/04 00:49:31;;;;;;;41.93;18.67;;;;;;;;;;5067056;28;20032;-55
2021/01/04 00:52:15;;;;;;;40.35;17.67;;;;;;;;;;5069029;28;20119;-55
2021/01/04 00:54:59;;;;;;;37.47;17.77;;;;;;;;;;5062294;28;21232;-52
2021/01/04 00:57:35;;;;;;;42.87;17.80;;;;;;;;;;5073934;28;20075;-54
2021/01/04 01:00:16;;;;;;;56.97;19.27;;;;;;;;;;5069383;28;20356;-53
2021/01/04 01:02:44;;;;;;;46.60;18.90;;;;;;;;;;5071240;28;20029;-54
2021/01/04 01:05:30;;;;;;;41.27;17.63;;;;;;;;;;5058802;28;20033;-54
2021/01/04 01:08:04;;;;;;;39.08;17.15;;;;;;;;;;5078341;28;20040;-52
2021/01/04 01:10:32;;;;;;;42.83;18.80;;;;;;;;;;5062292;28;20020;-53
2021/01/04 01:13:12;;;;;;;38.83;17.87;;;;;;;;;;5076369;28;20499;-54
2021/01/04 01:16:10;;;;;;;45.27;17.73;;;;;;;;;;5076787;28;20052;-54
2021/01/04 01:18:35;;;;;;;39.50;17.17;;;;;;;;;;5007949;28;20501;-53
2021/01/04 01:21:01;;;;;;;35.37;15.80;;;;;;;;;;5015770;28;20066;-48
2021/01/04 01:23:27;;;;;;;36.17;16.50;;;;;;;;;;5015400;28;20038;-54
2021/01/04 01:26:04;;;;;;;38.03;17.53;;;;;;;;;;5000593;28;20499;-53
2021/01/04 01:28:29;;;;;;;34.50;15.50;;;;;;;;;;5020464;28;20050;-54
2021/01/04 01:31:09;;;;;;;30.40;15.00;;;;;;;;;;5014764;28;20062;-54
2021/01/04 01:33:35;;;;;;;33.57;16.03;;;;;;;;;;5016073;28;20032;-52
2021/01/04 01:36:12;;;;;;;26.33;14.43;;;;;;;;;;5017706;28;20041;-55
2021/01/04 01:38:46;;;;;;;29.77;14.23;;;;;;;;;;5018789;28;20226;-54
2021/01/04 01:41:17;;;;;;;28.00;13.97;;;;;;;;;;5004480;28;20164;-53
2021/01/04 01:44:00;;;;;;;25.37;13.87;;;;;;;;;;5012777;28;20307;-55
2021/01/04 01:46:30;;;;;;;23.43;13.73;;;;;;;;;;4999653;28;20097;-57
2021/01/04 01:49:09;;;;;;;24.37;13.50;;;;;;;;;;4993188;28;20042;-55
2021/01/04 01:51:44;;;;;;;20.03;12.13;;;;;;;;;;4993711;28;20026;-53
2021/01/04 01:54:22;;;;;;;24.20;12.77;;;;;;;;;;5042024;28;20082;-56
2021/01/04 01:56:55;;;;;;;24.03;11.97;;;;;;;;;;5065781;28;20012;-55
2021/01/04 01:59:27;;;;;;;19.50;12.00;;;;;;;;;;5070556;28;20024;-55
2021/01/04 02:01:59;;;;;;;21.23;11.90;;;;;;;;;;5073647;28;20020;-56
2021/01/04 02:04:42;;;;;;;22.10;12.10;;;;;;;;;;5074870;28;20017;-52
2021/01/04 02:07:07;;;;;;;22.80;12.73;;;;;;;;;;5075998;28;20024;-54
2021/01/04 02:09:35;;;;;;;21.07;12.10;;;;;;;;;;5071419;28;20039;-52
2021/01/04 02:12:01;;;;;;;24.97;13.20;;;;;;;;;;5088251;28;20020;-55
2021/01/04 02:14:31;;;;;;;24.43;12.83;;;;;;;;;;5078554;28;20081;-53
2021/01/04 02:17:09;;;;;;;22.80;12.60;;;;;;;;;;5074532;28;20021;-54
2021/01/04 02:19:47;;;;;;;26.70;13.73;;;;;;;;;;5066351;28;20052;-54
2021/01/04 02:22:25;;;;;;;24.33;13.53;;;;;;;;;;5055214;28;20104;-53
2021/01/04 02:24:50;;;;;;;25.77;13.17;;;;;;;;;;5067714;28;20500;-54
2021/01/04 02:27:20;;;;;;;28.70;14.47;;;;;;;;;;5065287;28;20029;-52
2021/01/04 02:29:46;;;;;;;25.57;13.33;;;;;;;;;;5065154;28;20484;-53
2021/01/04 02:32:11;;;;;;;25.07;12.87;;;;;;;;;;5064849;28;20113;-54
2021/01/04 02:34:36;;;;;;;23.53;13.63;;;;;;;;;;5062313;28;20048;-53
2021/01/04 02:37:01;;;;;;;21.77;12.00;;;;;;;;;;5062728;28;20381;-55
2021/01/04 02:39:33;;;;;;;21.37;13.13;;;;;;;;;;5054578;28;20117;-52
2021/01/04 02:42:05;;;;;;;21.73;12.80;;;;;;;;;;5072883;28;20540;-54
2021/01/04 02:44:30;;;;;;;24.17;12.87;;;;;;;;;;5062709;28;20059;-52
2021/01/04 02:47:08;;;;;;;22.20;12.73;;;;;;;;;;5080277;28;20020;-53
2021/01/04 02:49:40;;;;;;;24.77;13.43;;;;;;;;;;5058487;28;20348;-55
2021/01/04 02:52:08;;;;;;;23.27;12.43;;;;;;;;;;5055494;28;20032;-56
2021/01/04 02:54:36;;;;;;;20.47;12.27;;;;;;;;;;5080460;28;20028;-53
2021/01/04 02:57:10;;;;;;;23.03;12.80;;;;;;;;;;5065566;28;20511;-50
2021/01/04 02:59:41;;;;;;;22.40;12.80;;;;;;;;;;5063747;28;20024;-51
2021/01/04 03:02:19;;;;;;;43.87;15.87;;;;;;;;;;5066106;28;20032;-55
2021/01/04 03:04:45;;;;;;;23.43;12.00;;;;;;;;;;5073780;28;20025;-55
2021/01/04 03:07:17;;;;;;;28.73;11.57;;;;;;;;;;5064933;28;20109;-55
2021/01/04 03:09:50;;;;;;;20.13;11.50;;;;;;;;;;5057893;28;20082;-53
2021/01/04 03:12:17;;;;;;;30.60;12.50;;;;;;;;;;5070253;28;20025;-54
2021/01/04 03:14:48;;;;;;;26.23;12.37;;;;;;;;;;5070021;28;20024;-53
2021/01/04 03:17:13;;;;;;;25.10;11.97;;;;;;;;;;5064464;28;20082;-55
2021/01/04 03:19:41;;;;;;;27.70;11.80;;;;;;;;;;5069345;28;20066;-54
2021/01/04 03:22:07;;;;;;;21.37;11.97;;;;;;;;;;5073530;28;20426;-52
2021/01/04 03:24:32;;;;;;;20.27;10.30;;;;;;;;;;5071335;28;20407;-51
2021/01/04 03:27:20;;;;;;;19.97;11.40;;;;;;;;;;5066981;28;20028;-54
2021/01/04 03:29:45;;;;;;;17.63;10.10;;;;;;;;;;5056171;28;20056;-52
2021/01/04 03:32:10;;;;;;;18.57;10.43;;;;;;;;;;5056295;28;20580;-55
2021/01/04 03:34:35;;;;;;;12.67;8.43;;;;;;;;;;5059790;28;20475;-54
2021/01/04 03:37:01;;;;;;;14.67;9.17;;;;;;;;;;5067275;28;20060;-55
2021/01/04 03:39:29;;;;;;;14.10;9.00;;;;;;;;;;5059826;28;20021;-52
2021/01/04 03:41:55;;;;;;;15.93;8.40;;;;;;;;;;5053167;28;20025;-54
2021/01/04 03:44:20;;;;;;;11.90;7.60;;;;;;;;;;5058266;28;20025;-56
2021/01/04 03:46:46;;;;;;;12.93;8.43;;;;;;;;;;5064502;28;20099;-53
2021/01/04 03:49:11;;;;;;;12.90;7.67;;;;;;;;;;5066999;28;20020;-56
2021/01/04 03:51:36;;;;;;;11.43;6.73;;;;;;;;;;5073034;28;20071;-53
2021/01/04 03:54:01;;;;;;;13.33;6.90;;;;;;;;;;5071455;28;20021;-51
2021/01/04 03:56:26;;;;;;;11.40;7.33;;;;;;;;;;5073051;28;20058;-53
2021/01/04 03:58:52;;;;;;;12.83;7.10;;;;;;;;;;5067329;28;20020;-52
2021/01/04 04:01:17;;;;;;;11.33;7.10;;;;;;;;;;5061941;28;20021;-53
2021/01/04 04:03:43;;;;;;;11.10;6.60;;;;;;;;;;5052737;28;20009;-54
2021/01/04 04:06:17;;;;;;;10.43;6.77;;;;;;;;;;5074769;28;20065;-55
2021/01/04 04:08:42;;;;;;;9.57;6.23;;;;;;;;;;5070920;28;20092;-50
2021/01/04 04:11:07;;;;;;;10.60;7.00;;;;;;;;;;5063754;28;20502;-53
2021/01/04 04:13:33;;;;;;;11.47;6.83;;;;;;;;;;5067447;28;20020;-54
2021/01/04 04:15:58;;;;;;;11.07;7.40;;;;;;;;;;5065752;28;20013;-55
2021/01/04 04:18:23;;;;;;;13.17;8.00;;;;;;;;;;5055300;28;20024;-53
2021/01/04 04:20:49;;;;;;;13.67;7.80;;;;;;;;;;5057807;28;20025;-54
2021/01/04 04:23:14;;;;;;;13.70;7.90;;;;;;;;;;5073644;28;20051;-55
2021/01/04 04:25:39;;;;;;;13.90;8.30;;;;;;;;;;5070878;28;20013;-54
2021/01/04 04:28:05;;;;;;;14.47;8.30;;;;;;;;;;5082729;28;20052;-54
2021/01/04 04:30:30;;;;;;;18.97;8.90;;;;;;;;;;5067511;28;20111;-54
2021/01/04 04:32:56;;;;;;;17.40;9.07;;;;;;;;;;5077160;28;20020;-55
2021/01/04 04:35:22;;;;;;;16.53;9.23;;;;;;;;;;5070662;28;20028;-53
2021/01/04 04:37:48;;;;;;;13.57;8.00;;;;;;;;;;5063577;28;20419;-53
2021/01/04 04:40:15;;;;;;;14.30;8.53;;;;;;;;;;5054629;28;20439;-56
2021/01/04 04:42:40;;;;;;;14.53;8.33;;;;;;;;;;5083914;28;20066;-55
2021/01/04 04:45:11;;;;;;;12.83;8.23;;;;;;;;;;5064956;28;20064;-51
2021/01/04 04:47:51;;;;;;;13.73;8.47;;;;;;;;;;5052203;28;20025;-56
2021/01/04 04:50:35;;;;;;;13.50;8.27;;;;;;;;;;5057455;28;20500;-56
2021/01/04 04:53:06;;;;;;;14.30;8.83;;;;;;;;;;5069357;28;20375;-55
2021/01/04 04:55:34;;;;;;;14.47;7.70;;;;;;;;;;5056334;28;20025;-55
2021/01/04 04:57:59;;;;;;;15.17;8.40;;;;;;;;;;5071392;28;20021;-52
2021/01/04 05:00:28;;;;;;;13.63;7.87;;;;;;;;;;5058624;28;20574;-55
2021/01/04 05:03:11;;;;;;;13.17;7.80;;;;;;;;;;5052147;28;20025;-54
2021/01/04 05:05:52;;;;;;;11.60;7.37;;;;;;;;;;5057987;28;20028;-55
2021/01/04 05:08:29;;;;;;;17.07;8.30;;;;;;;;;;5070476;28;20584;-55
2021/01/04 05:10:55;;;;;;;12.93;7.83;;;;;;;;;;5062998;28;20031;-56
2021/01/04 05:13:23;;;;;;;15.07;8.07;;;;;;;;;;5071954;28;20039;-54
2021/01/04 05:16:06;;;;;;;15.07;8.27;;;;;;;;;;5062121;28;20061;-53
2021/01/04 05:18:44;;;;;;;13.57;7.20;;;;;;;;;;5088996;28;20097;-54
2021/01/04 05:21:44;;;;;;;16.83;8.63;;;;;;;;;;5068150;28;20476;-57
2021/01/04 05:24:12;;;;;;;13.80;8.40;;;;;;;;;;5012830;28;20046;-52
2021/01/04 05:26:40;;;;;;;15.27;9.27;;;;;;;;;;5014513;28;20564;-54
2021/01/04 05:29:20;;;;;;;16.57;9.13;;;;;;;;;;5006847;28;20041;-51
2021/01/04 05:31:51;;;;;;;15.93;9.63;;;;;;;;;;5012287;28;20038;-56
2021/01/04 05:34:21;;;;;;;13.80;8.97;;;;;;;;;;5013066;28;20105;-56
2021/01/04 05:36:49;;;;;;;15.13;8.70;;;;;;;;;;5013307;28;20022;-52
2021/01/04 05:39:21;;;;;;;15.80;9.03;;;;;;;;;;5009569;28;20038;-55
2021/01/04 05:41:46;;;;;;;14.63;8.47;;;;;;;;;;4997187;28;20486;-55
2021/01/04 05:44:29;;;;;;;16.60;8.97;;;;;;;;;;5004187;28;20064;-54
2021/01/04 05:47:13;;;;;;;16.83;9.33;;;;;;;;;;5017774;28;20031;-53
2021/01/04 05:49:42;;;;;;;14.73;8.77;;;;;;;;;;5014050;28;20072;-56
2021/01/04 05:52:07;;;;;;;20.73;8.90;;;;;;;;;;5007404;28;20041;-54
2021/01/04 05:54:36;;;;;;;18.00;9.53;;;;;;;;;;5020103;28;20021;-53
2021/01/04 05:57:05;;;;;;;20.03;10.53;;;;;;;;;;5020352;28;20033;-54
2021/01/04 05:59:31;;;;;;;30.43;11.73;;;;;;;;;;5067653;28;20040;-55
2021/01/04 06:02:04;;;;;;;22.00;10.30;;;;;;;;;;5072977;28;20024;-54
2021/01/04 06:04:29;;;;;;;18.67;9.33;;;;;;;;;;5074368;28;20467;-53
2021/01/04 06:06:57;;;;;;;23.27;10.33;;;;;;;;;;5074276;28;20043;-53
2021/01/04 06:09:24;;;;;;;18.37;9.07;;;;;;;;;;5063708;28;20024;-57
2021/01/04 06:11:50;;;;;;;24.10;10.83;;;;;;;;;;5068016;28;20135;-54
2021/01/04 06:14:15;;;;;;;22.00;11.07;;;;;;;;;;5080822;28;20016;-56
2021/01/04 06:16:42;;;;;;;20.13;10.60;;;;;;;;;;5074762;28;20023;-56
2021/01/04 06:19:09;;;;;;;32.27;11.10;;;;;;;;;;5066840;28;20032;-54
2021/01/04 06:21:47;;;;;;;23.80;11.97;;;;;;;;;;5060982;28;20029;-56
2021/01/04 06:24:31;;;;;;;27.87;13.20;;;;;;;;;;5093980;28;20139;-53
2021/01/04 06:27:05;;;;;;;24.47;11.77;;;;;;;;;;5070527;28;20040;-55
2021/01/04 06:29:38;;;;;;;36.00;14.50;;;;;;;;;;5061174;28;20498;-55
2021/01/04 06:32:04;;;;;;;29.67;13.20;;;;;;;;;;5058288;28;20032;-56
2021/01/04 06:34:31;;;;;;;23.47;12.20;;;;;;;;;;5064853;28;20231;-54
2021/01/04 06:36:59;;;;;;;30.13;13.57;;;;;;;;;;5088153;28;20510;-50
2021/01/04 06:39:26;;;;;;;25.07;13.43;;;;;;;;;;5062697;28;20058;-56
2021/01/04 06:41:52;;;;;;;27.53;14.27;;;;;;;;;;5083155;28;20028;-56
2021/01/04 06:44:22;;;;;;;47.53;19.80;;;;;;;;;;5077260;28;20039;-56
2021/01/04 06:47:03;;;;;;;34.67;15.23;;;;;;;;;;5071572;28;20387;-54
2021/01/04 06:49:31;;;;;;;42.13;14.50;;;;;;;;;;5060069;28;20364;-55
2021/01/04 06:52:15;;;;;;;29.93;13.20;;;;;;;;;;5057306;28;20029;-56
2021/01/04 06:54:59;;;;;;;34.53;14.57;;;;;;;;;;5069978;28;20032;-57
2021/01/04 06:57:24;;;;;;;43.60;13.73;;;;;;;;;;5091110;28;20031;-53
2021/01/04 07:00:03;;;;;;;36.27;13.10;;;;;;;;;;5064912;28;20009;-55
2021/01/04 07:02:31;;;;;;;33.13;13.87;;;;;;;;;;5069706;28;20039;-55
2021/01/04 07:05:09;;;;;;;30.80;12.90;;;;;;;;;;5063631;28;20101;-53
2021/01/04 07:07:50;;;;;;;39.67;13.20;;;;;;;;;;5060857;28;20058;-54
2021/01/04 07:10:21;;;;;;;38.67;13.37;;;;;;;;;;5059653;28;20025;-54
2021/01/04 07:13:01;;;;;;;34.00;12.13;;;;;;;;;;5067057;28;20016;-51
2021/01/04 07:15:28;;;;;;;37.57;12.77;;;;;;;;;;5091479;28;20008;-56
2021/01/04 07:18:11;;;;;;;40.07;13.20;;;;;;;;;;5070577;28;20017;-54
2021/01/04 07:20:56;;;;;;;47.20;14.77;;;;;;;;;;5069089;28;20024;-54
2021/01/04 07:23:53;;;;;;;31.93;12.57;;;;;;;;;;5056002;28;20064;-53
2021/01/04 07:26:39;;;;;;;35.90;13.13;;;;;;;;;;4992017;28;20081;-54
2021/01/04 07:29:10;;;;;;;40.08;13.32;;;;;;;;;;4986995;28;20126;-56
2021/01/04 07:31:41;;;;;;;39.47;13.13;;;;;;;;;;4991550;28;20054;-54
2021/01/04 07:34:13;;;;;;;35.33;13.43;;;;;;;;;;4991410;28;20129;-55
2021/01/04 07:36:43;;;;;;;26.33;11.90;;;;;;;;;;5001616;28;20034;-52
2021/01/04 07:39:08;;;;;;;29.03;12.03;;;;;;;;;;4986447;28;20034;-50
2021/01/04 07:41:36;;;;;;;37.83;18.43;;;;;;;;;;4985372;28;20493;-55
2021/01/04 07:44:01;;;;;;;30.33;14.43;;;;;;;;;;4995296;28;20058;-55
2021/01/04 07:46:29;;;;;;;31.20;14.33;;;;;;;;;;5009406;28;20433;-56
2021/01/04 07:48:54;;;;;;;27.63;13.57;;;;;;;;;;4985991;28;20038;-54
2021/01/04 07:51:28;;;;;;;28.20;14.07;;;;;;;;;;4989139;28;20473;-53
2021/01/04 07:54:00;;;;;;;28.83;13.83;;;;;;;;;;4989287;28;20453;-53
2021/01/04 07:56:25;;;;;;;31.07;14.83;;;;;;;;;;4974960;28;20441;-54
2021/01/04 07:58:56;;;;;;;30.17;13.97;;;;;;;;;;4986117;28;20474;-54
2021/01/04 08:01:40;;;;;;;28.37;14.37;;;;;;;;;;5007985;28;20029;-56
2021/01/04 08:04:20;;;;;;;26.33;13.13;;;;;;;;;;5072063;28;20024;-49
2021/01/04 08:06:57;;;;;;;26.80;12.77;;;;;;;;;;5064927;28;20103;-54
2021/01/04 08:09:40;;;;;;;27.20;12.10;;;;;;;;;;5052951;28;20127;-56
2021/01/04 08:12:16;;;;;;;38.63;13.23;;;;;;;;;;5076846;28;20510;-54
2021/01/04 08:14:41;;;;;;;;;;;;;;;;;;5068308;28;20021;-52
2021/01/04 08:17:13;;;;;;;26.63;12.70;;;;;;;;;;5060037;28;19991;-52
2021/01/04 08:19:38;;;;;;;29.17;14.53;;;;;;;;;;5057835;28;20029;-51
2021/01/04 08:22:22;;;;;;;33.63;15.33;;;;;;;;;;5060121;28;20020;-53
2021/01/04 08:24:49;;;;;;;30.27;15.43;;;;;;;;;;5062497;28;20102;-51
2021/01/04 08:27:33;;;;;;;30.63;15.20;;;;;;;;;;5059284;28;20527;-51
2021/01/04 08:29:58;;;;;;;35.40;15.53;;;;;;;;;;5062076;28;20020;-51
2021/01/04 08:32:24;;;;;;;30.37;15.10;;;;;;;;;;5069943;28;20095;-55
2021/01/04 08:34:49;;;;;;;28.37;14.10;;;;;;;;;;5064602;28;20041;-54
2021/01/04 08:37:17;;;;;;;37.47;15.90;;;;;;;;;;5069513;28;20379;-54
2021/01/04 08:39:51;;;;;;;47.67;16.87;;;;;;;;;;5055740;28;20033;-54
2021/01/04 08:42:22;;;;;;;34.73;15.30;;;;;;;;;;5051779;28;20365;-51
2021/01/04 08:44:53;;;;;;;34.83;14.67;;;;;;;;;;5070292;28;20503;-54
2021/01/04 08:47:25;;;;;;;34.03;14.63;;;;;;;;;;5068500;28;20341;-52
2021/01/04 08:49:59;;;;;;;41.93;15.03;;;;;;;;;;5056192;28;20126;-53
2021/01/04 08:52:24;;;;;;;44.40;14.97;;;;;;;;;;5057692;28;20466;-54
2021/01/04 08:54:57;;;;;;;30.43;13.80;;;;;;;;;;5068961;28;20098;-54
2021/01/04 08:57:27;;;;;;;38.07;16.07;;;;;;;;;;5074780;28;20039;-51
2021/01/04 08:59:53;;;;;;;32.47;15.73;;;;;;;;;;5058954;28;20021;-52
2021/01/04 09:02:31;;;;;;;36.80;14.27;;;;;;;;;;5079494;28;20028;-53
2021/01/04 09:05:00;;;;;;;32.60;14.50;;;;;;;;;;5068454;28;20090;-52
2021/01/04 09:07:27;;;;;;;33.80;14.07;;;;;;;;;;5061195;28;20044;-53
2021/01/04 09:09:59;;;;;;;37.10;14.23;;;;;;;;;;5066184;28;20050;-54
2021/01/04 09:12:36;;;;;;;55.97;16.07;;;;;;;;;;5061913;28;20021;-52
2021/01/04 09:15:05;;;;;;;54.53;15.70;;;;;;;;;;5060411;28;20025;-52
2021/01/04 09:17:45;;;;;;;53.70;15.63;;;;;;;;;;5071340;28;20048;-55
2021/01/04 09:20:23;;;;;;;45.30;14.40;;;;;;;;;;5052702;28;20016;-57
2021/01/04 09:23:01;;;;;;;40.37;15.27;;;;;;;;;;5057702;28;20024;-54
2021/01/04 09:25:29;;;;;;;55.80;15.80;;;;;;;;;;5054946;28;20464;-53
2021/01/04 09:27:54;;;;;;;59.83;16.00;;;;;;;;;;5059869;28;20108;-56
2021/01/04 09:30:24;;;;;;;39.63;14.10;;;;;;;;;;5062238;28;20107;-53
2021/01/04 09:32:50;;;;;;;48.13;13.63;;;;;;;;;;5058839;28;20114;-53
2021/01/04 09:35:25;;;;;;;47.03;14.93;;;;;;;;;;5058557;28;20479;-57
2021/01/04 09:38:07;;;;;;;54.28;16.05;;;;;;;;;;5055006;28;20118;-55
2021/01/04 09:40:33;;;;;;;47.77;15.67;;;;;;;;;;5059512;28;20391;-57
2021/01/04 09:43:08;;;;;;;45.03;15.47;;;;;;;;;;5066557;28;20021;-56
2021/01/04 09:45:34;;;;;;;62.73;16.67;;;;;;;;;;5059962;28;20017;-58
2021/01/04 09:48:04;;;;;;;44.70;14.63;;;;;;;;;;5059161;28;20593;-55
2021/01/04 09:50:31;;;;;;;39.87;15.77;;;;;;;;;;5057891;28;20020;-54
2021/01/04 09:52:59;;;;;;;43.90;14.33;;;;;;;;;;5063703;28;20028;-55
2021/01/04 09:55:28;;;;;;;46.00;14.57;;;;;;;;;;5054686;28;20063;-55
2021/01/04 09:57:56;;;;;;;49.73;15.60;;;;;;;;;;5063968;28;20086;-56
2021/01/04 10:00:24;;;;;;;48.13;15.10;;;;;;;;;;5059417;28;20383;-54
2021/01/04 10:03:00;;;;;;;42.27;14.80;;;;;;;;;;5070506;28;20027;-55
2021/01/04 10:05:31;;;;;;;37.90;14.27;;;;;;;;;;5064490;28;20023;-53
2021/01/04 10:07:56;;;;;;;45.20;15.80;;;;;;;;;;5068675;28;20035;-55
2021/01/04 10:10:21;;;;;;;52.30;14.37;;;;;;;;;;5058515;28;20013;-55
2021/01/04 10:12:47;;;;;;;55.17;15.23;;;;;;;;;;5059883;28;20013;-57
2021/01/04 10:15:38;;;;;;;37.73;14.30;;;;;;;;;;5063849;28;20483;-55
2021/01/04 10:18:03;;;;;;;41.93;15.00;;;;;;;;;;5055998;28;20509;-55
2021/01/04 10:20:33;;;;;;;40.53;15.33;;;;;;;;;;5063136;28;20009;-57
2021/01/04 10:23:00;;;;;;;36.03;13.70;;;;;;;;;;5057115;28;20054;-53
2021/01/04 10:25:39;;;;;;;34.33;14.30;;;;;;;;;;5057912;28;20446;-55
2021/01/04 10:28:05;;;;;;;40.90;14.47;;;;;;;;;;5066042;28;20016;-54
2021/01/04 10:30:30;;;;;;;44.63;14.27;;;;;;;;;;5061380;28;20032;-57
2021/01/04 10:33:01;;;;;;;48.80;14.67;;;;;;;;;;5064463;28;20021;-55
2021/01/04 10:35:26;;;;;;;34.70;14.90;;;;;;;;;;5055593;28;21473;-55
2021/01/04 10:38:01;;;;;;;49.67;15.57;;;;;;;;;;5063970;28;20441;-57
2021/01/04 10:40:26;;;;;;;52.43;16.03;;;;;;;;;;5050528;28;20035;-55
2021/01/04 10:43:05;;;;;;;53.63;16.23;;;;;;;;;;5053668;28;21166;-56
2021/01/04 10:45:35;;;;;;;74.00;17.60;;;;;;;;;;5064612;28;20510;-57
2021/01/04 10:48:20;;;;;;;40.03;15.23;;;;;;;;;;5053884;28;20075;-56
2021/01/04 10:50:47;;;;;;;75.32;17.33;;;;;;;;;;5066448;28;20479;-54
2021/01/04 10:53:24;;;;;;;36.30;15.27;;;;;;;;;;5054481;28;20033;-55
2021/01/04 10:56:16;;;;;;;48.30;15.33;;;;;;;;;;5073492;28;20032;-56
2021/01/04 10:58:49;;;;;;;42.20;15.27;;;;;;;;;;5065193;28;20029;-56
2021/01/04 11:01:22;;;;;;;34.83;12.70;;;;;;;;;;5055586;28;20033;-56
2021/01/04 11:03:52;;;;;;;32.87;12.47;;;;;;;;;;5061158;28;20024;-55
2021/01/04 11:06:22;;;;;;;24.93;13.43;;;;;;;;;;5062793;28;20036;-53
2021/01/04 11:08:47;;;;;;;23.17;12.20;;;;;;;;;;5054148;28;20652;-55
2021/01/04 11:11:18;;;;;;;24.23;12.63;;;;;;;;;;5055819;28;20115;-54
2021/01/04 11:13:43;;;;;;;25.23;12.60;;;;;;;;;;5063738;28;20099;-54
2021/01/04 11:16:11;;;;;;;24.80;11.83;;;;;;;;;;5061126;28;20139;-54
2021/01/04 11:18:55;;;;;;;25.90;12.70;;;;;;;;;;5059416;28;20013;-52
2021/01/04 11:21:33;;;;;;;30.27;14.23;;;;;;;;;;5072708;28;20375;-55
2021/01/04 11:23:58;;;;;;;31.00;14.57;;;;;;;;;;5063236;28;20120;-55
2021/01/04 11:26:23;;;;;;;29.03;14.13;;;;;;;;;;5072636;28;20099;-56
2021/01/04 11:28:48;;;;;;;39.37;13.43;;;;;;;;;;5062981;28;20317;-54
2021/01/04 11:31:14;;;;;;;100.10;19.17;;;;;;;;;;5053135;28;20032;-53
2021/01/04 11:33:39;;;;;;;40.00;14.43;;;;;;;;;;5053539;28;20387;-58
2021/01/04 11:36:04;;;;;;;45.77;14.07;;;;;;;;;;5062678;28;20023;-57
2021/01/04 11:38:30;;;;;;;51.73;14.30;;;;;;;;;;5048665;28;20051;-54
2021/01/04 11:40:55;;;;;;;33.17;13.47;;;;;;;;;;5065798;28;20021;-54
2021/01/04 11:43:20;;;;;;;35.33;12.90;;;;;;;;;;5070591;28;20365;-56
2021/01/04 11:45:46;;;;;;;61.30;15.77;;;;;;;;;;5060225;28;20021;-55
2021/01/04 11:48:11;;;;;;;27.07;13.03;;;;;;;;;;5070804;28;20032;-54
2021/01/04 11:50:36;;;;;;;49.67;15.50;;;;;;;;;;5053674;28;20024;-55
2021/01/04 11:53:01;;;;;;;42.80;15.47;;;;;;;;;;5068527;28;20020;-56
2021/01/04 11:55:27;;;;;;;35.47;14.70;;;;;;;;;;5070742;28;20113;-54
2021/01/04 11:57:52;;;;;;;73.73;16.13;;;;;;;;;;5053879;28;20021;-54
2021/01/04 12:00:18;;;;;;;38.33;13.50;;;;;;;;;;5051747;28;20039;-56
2021/01/04 12:02:44;;;;;;;50.27;15.30;;;;;;;;;;5053731;28;20075;-54
2021/01/04 12:05:11;;;;;;;42.50;16.13;;;;;;;;;;5055479;28;20028;-53
2021/01/04 12:07:37;;;;;;;30.90;14.83;;;;;;;;;;5056056;28;20016;-56
2021/01/04 12:10:02;;;;;;;35.37;14.30;;;;;;;;;;5054497;28;20612;-57
2021/01/04 12:12:27;;;;;;;47.30;15.70;;;;;;;;;;5070080;28;20012;-55
2021/01/04 12:14:53;;;;;;;39.13;13.47;;;;;;;;;;5069473;28;20471;-55
2021/01/04 12:17:19;;;;;;;29.77;14.07;;;;;;;;;;5071872;28;20485;-55
2021/01/04 12:19:44;;;;;;;34.20;14.07;;;;;;;;;;5060524;28;20051;-56
2021/01/04 12:22:11;;;;;;;35.87;15.77;;;;;;;;;;5070978;28;20029;-54
2021/01/04 12:24:37;;;;;;;44.03;14.10;;;;;;;;;;5070671;28;20049;-55
2021/01/04 12:27:03;;;;;;;58.03;17.53;;;;;;;;;;5068431;28;20025;-53
2021/01/04 12:29:28;;;;;;;37.40;15.23;;;;;;;;;;5054317;28;20037;-55
2021/01/04 12:31:54;;;;;;;35.57;14.63;;;;;;;;;;5070626;28;20017;-58
2021/01/04 12:34:19;;;;;;;32.10;13.23;;;;;;;;;;5071379;28;20487;-56
2021/01/04 12:36:45;;;;;;;27.00;13.27;;;;;;;;;;5071585;28;20012;-55
2021/01/04 12:39:10;;;;;;;28.13;13.10;;;;;;;;;;5055405;28;20395;-54
2021/01/04 12:41:36;;;;;;;27.00;13.33;;;;;;;;;;5068982;28;20023;-53
2021/01/04 12:44:01;;;;;;;28.43;13.07;;;;;;;;;;5070820;28;20031;-56
2021/01/04 12:46:27;;;;;;;27.20;13.07;;;;;;;;;;5069929;28;20009;-57
2021/01/04 12:48:52;;;;;;;28.90;11.53;;;;;;;;;;5063958;28;20191;-57
2021/01/04 12:51:17;;;;;;;29.83;12.43;;;;;;;;;;5053469;28;20028;-57
2021/01/04 12:53:42;;;;;;;35.37;14.10;;;;;;;;;;5059742;28;20375;-57
2021/01/04 12:56:10;;;;;;;27.37;13.17;;;;;;;;;;5051631;28;20436;-55
2021/01/04 12:58:39;;;;;;;38.47;14.47;;;;;;;;;;5054324;28;20016;-57
2021/01/04 13:01:04;;;;;;;29.93;12.37;;;;;;;;;;5064252;28;20070;-52
2021/01/04 13:03:29;;;;;;;28.80;12.30;;;;;;;;;;5054575;28;20025;-57
2021/01/04 13:05:54;;;;;;;26.80;13.27;;;;;;;;;;5051533;28;20422;-56
2021/01/04 13:08:19;;;;;;;28.40;13.43;;;;;;;;;;5050082;28;20036;-57
2021/01/04 13:10:45;;;;;;;28.57;13.03;;;;;;;;;;5058746;28;20092;-57
2021/01/04 13:13:10;;;;;;;26.07;13.13;;;;;;;;;;5053500;28;20024;-55
2021/01/04 13:15:35;;;;;;;28.93;12.90;;;;;;;;;;5058074;28;20463;-55
2021/01/04 13:18:00;;;;;;;31.97;14.37;;;;;;;;;;5052208;28;20025;-56
2021/01/04 13:20:26;;;;;;;32.83;15.13;;;;;;;;;;5053936;28;20016;-54
2021/01/04 13:22:51;;;;;;;32.80;14.17;;;;;;;;;;5060554;28;20573;-56
2021/01/04 13:25:16;;;;;;;31.30;13.63;;;;;;;;;;5053502;28;20028;-56
2021/01/04 13:27:41;;;;;;;31.87;14.53;;;;;;;;;;5061611;28;20120;-55
2021/01/04 13:30:07;;;;;;;38.23;15.43;;;;;;;;;;5051240;28;20031;-52
2021/01/04 13:32:32;;;;;;;42.93;16.20;;;;;;;;;;5058256;28;20040;-51
2021/01/04 13:34:57;;;;;;;55.73;17.80;;;;;;;;;;5064632;28;20388;-56
2021/01/04 13:37:23;;;;;;;45.07;17.83;;;;;;;;;;5050950;28;20476;-55
2021/01/04 13:39:48;;;;;;;50.77;19.00;;;;;;;;;;5057802;28;20475;-54
2021/01/04 13:42:14;;;;;;;33.30;16.20;;;;;;;;;;5067954;28;20451;-56
2021/01/04 13:44:40;;;;;;;41.43;17.57;;;;;;;;;;5063997;28;20099;-57
2021/01/04 13:47:08;;;;;;;40.07;16.73;;;;;;;;;;5074562;28;20070;-54
2021/01/04 13:49:33;;;;;;;43.40;16.67;;;;;;;;;;5070704;28;20020;-57
2021/01/04 13:51:59;;;;;;;48.33;17.07;;;;;;;;;;5072839;28;20494;-55
2021/01/04 13:54:24;;;;;;;44.53;18.03;;;;;;;;;;5069483;28;20095;-57
2021/01/04 13:56:51;;;;;;;38.93;17.07;;;;;;;;;;5073592;28;20018;-57
2021/01/04 13:59:16;;;;;;;38.13;16.63;;;;;;;;;;5063240;28;20025;-57
2021/01/04 14:01:42;;;;;;;31.60;13.97;;;;;;;;;;5054617;28;20029;-58
2021/01/04 14:04:08;;;;;;;35.80;16.03;;;;;;;;;;5061884;28;20013;-57
2021/01/04 14:06:39;;;;;;;32.10;14.90;;;;;;;;;;5073980;28;20027;-58
2021/01/04 14:09:06;;;;;;;39.47;17.00;;;;;;;;;;5050933;28;20028;-57
2021/01/04 14:11:31;;;;;;;36.30;17.07;;;;;;;;;;5053510;28;20125;-57
2021/01/04 14:13:56;;;;;;;42.60;16.53;;;;;;;;;;5054311;28;20147;-56
2021/01/04 14:16:23;;;;;;;37.10;15.63;;;;;;;;;;5054349;28;20025;-57
2021/01/04 14:18:48;;;;;;;40.00;16.43;;;;;;;;;;5050790;28;20308;-57
2021/01/04 14:21:17;;;;;;;37.17;15.30;;;;;;;;;;5054603;28;20028;-52
2021/01/04 14:23:43;;;;;;;43.70;17.57;;;;;;;;;;5062307;28;20058;-57
2021/01/04 14:26:08;;;;;;;40.57;16.50;;;;;;;;;;5057777;28;20025;-56
2021/01/04 14:28:34;;;;;;;41.57;16.30;;;;;;;;;;5058601;28;20045;-56
2021/01/04 14:30:59;;;;;;;44.07;16.30;;;;;;;;;;5069472;28;20028;-57
2021/01/04 14:33:25;;;;;;;41.93;16.33;;;;;;;;;;5072325;28;20076;-57
2021/01/04 14:35:50;;;;;;;35.43;15.57;;;;;;;;;;5088611;28;20016;-54